KFET

Fremont Municipal Airport

Fremont, Nebraska, USA
METAR KFET 181055Z AUTO 36003KT 10SM SCT095 24/22 A2993 RMK AO2 T02370222
Observed Flight Rules
Jun-18 @ 10:55 UTC (16 minutes ago) Visual Flight Rules
Wind Visibility Clouds
360° at 3 knots 10 miles
  • Scattered at 9,500' AGL
Temperatures Readings
Current 24°C / 75°F
Dewpoint 22°C / 72°F
Humidity 89%
Altimeter 29.93" Hg
Pressure 1014 hPa
Elevation 367
METAR KFET 181055Z AUTO 36003KT 10SM SCT095 24/22 A2993 RMK AO2 T02370222
Observed Flight Rules
Jun-18 @ 10:55 UTC
(16 minutes ago)
VFR
Wind Visibility
360° at 3 knots 10 miles
Clouds
  • Scattered at 9,500' AGL
Temperature Dewpoint
24°C / 75°F 22°C / 72°F
Humidity Altimeter Pressure
89% 29.93" Hg 1014 hPa